createdAt,value
2019-06-01T00:00:21.722Z,17.30
2019-06-01T00:02:56.110Z,17.30
2019-06-01T00:05:24.370Z,17.20
2019-06-01T00:07:54.829Z,17.20
2019-06-01T00:10:25.513Z,17.20
2019-06-01T00:12:56.050Z,17.20
2019-06-01T00:15:26.419Z,17.20
2019-06-01T00:17:56.823Z,17.20
2019-06-01T00:20:27.284Z,17.20
2019-06-01T00:22:57.654Z,17.20
2019-06-01T00:25:28.034Z,17.20
2019-06-01T00:27:58.450Z,17.20
2019-06-01T00:30:29.000Z,17.20
2019-06-01T00:32:59.371Z,17.10
2019-06-01T00:35:31.418Z,17.10
2019-06-01T00:38:03.458Z,17.10
2019-06-01T00:40:33.893Z,17.00
2019-06-01T00:43:05.820Z,17.00
2019-06-01T00:45:36.193Z,17.00
2019-06-01T00:48:08.078Z,17.00
2019-06-01T00:50:38.458Z,17.00
2019-06-01T00:53:08.993Z,17.00
2019-06-01T00:55:39.404Z,17.00
2019-06-01T00:58:09.874Z,17.00
2019-06-01T01:00:43.759Z,17.00
2019-06-01T01:03:12.566Z,17.00
2019-06-01T01:05:44.485Z,17.00
2019-06-01T01:08:15.017Z,17.00
2019-06-01T01:10:45.393Z,17.00
2019-06-01T01:13:17.430Z,17.00
2019-06-01T01:15:47.804Z,17.00
2019-06-01T01:18:18.212Z,17.00
2019-06-01T01:20:49.967Z,17.00
2019-06-01T01:23:20.553Z,17.00
2019-06-01T01:25:50.982Z,17.00
2019-06-01T01:28:23.992Z,17.00
2019-06-01T01:31:06.578Z,17.00
2019-06-01T01:33:28.094Z,17.10
2019-06-01T01:35:58.469Z,17.10
2019-06-01T01:38:28.884Z,17.20
2019-06-01T01:40:59.439Z,17.30
2019-06-01T01:43:29.984Z,17.40
2019-06-01T01:46:00.350Z,17.50
2019-06-01T01:48:30.763Z,17.50
2019-06-01T01:51:01.140Z,17.50
2019-06-01T01:53:31.534Z,17.60
2019-06-01T01:56:01.991Z,17.60
2019-06-01T01:58:32.577Z,17.60
2019-06-01T02:01:20.706Z,17.50
2019-06-01T02:03:35.057Z,17.50
2019-06-01T02:06:05.649Z,17.50
2019-06-01T02:08:36.014Z,17.40
2019-06-01T02:11:07.900Z,17.40
2019-06-01T02:13:38.288Z,17.40
2019-06-01T02:16:10.234Z,17.50
2019-06-01T02:18:40.592Z,17.60
2019-06-01T02:21:11.012Z,17.70
2019-06-01T02:23:41.389Z,17.80
2019-06-01T02:26:11.869Z,17.80
2019-06-01T02:28:42.268Z,17.90
2019-06-01T02:31:12.667Z,18.00
2019-06-01T02:33:43.081Z,18.00
2019-06-01T02:36:13.466Z,17.90
2019-06-01T02:38:43.831Z,17.80
2019-06-01T02:41:14.462Z,17.70
2019-06-01T02:43:44.928Z,17.70
2019-06-01T02:46:15.373Z,17.60
2019-06-01T02:48:45.820Z,17.60
2019-06-01T02:51:16.178Z,17.60
2019-06-01T02:53:48.050Z,17.50
2019-06-01T02:56:18.510Z,17.50
2019-06-01T02:58:50.386Z,17.40
2019-06-01T03:01:34.917Z,17.30
2019-06-01T03:04:10.119Z,17.30
2019-06-01T03:06:42.448Z,17.30
2019-06-01T03:09:13.004Z,17.30
2019-06-01T03:11:43.665Z,17.30
2019-06-01T03:14:14.038Z,17.30
2019-06-01T03:16:44.514Z,17.30
2019-06-01T03:19:17.209Z,17.40
2019-06-01T03:21:49.405Z,17.40
2019-06-01T03:24:22.731Z,17.50
2019-06-01T03:26:55.925Z,17.50
2019-06-01T03:29:29.332Z,17.50
2019-06-01T03:32:19.051Z,17.60
2019-06-01T03:34:32.628Z,17.50
2019-06-01T03:37:03.036Z,17.60
2019-06-01T03:39:37.211Z,17.50
2019-06-01T03:42:08.090Z,17.50
2019-06-01T03:44:38.783Z,17.50
2019-06-01T03:47:09.753Z,17.60
2019-06-01T03:49:40.241Z,17.60
2019-06-01T03:52:10.729Z,17.60
2019-06-01T03:54:41.171Z,17.60
2019-06-01T03:57:11.591Z,17.70
2019-06-01T03:59:42.046Z,17.80
2019-06-01T04:02:12.624Z,17.80
2019-06-01T04:04:43.075Z,17.80
2019-06-01T04:07:13.533Z,17.80
2019-06-01T04:09:45.421Z,17.80
2019-06-01T04:12:15.837Z,17.90
2019-06-01T04:14:46.262Z,17.90
2019-06-01T04:17:18.098Z,18.00
2019-06-01T04:19:51.358Z,18.10
2019-06-01T04:22:21.744Z,18.30
2019-06-01T04:24:54.968Z,18.50
2019-06-01T04:27:28.175Z,18.70
2019-06-01T04:29:58.725Z,18.90
2019-06-01T04:32:29.741Z,19.10
2019-06-01T04:35:00.170Z,19.20
2019-06-01T04:37:30.524Z,19.40
2019-06-01T04:40:00.935Z,19.60
2019-06-01T04:42:31.374Z,19.70
2019-06-01T04:45:01.934Z,19.80
2019-06-01T04:47:32.544Z,20.00
2019-06-01T04:50:04.474Z,20.10
2019-06-01T04:52:34.920Z,20.20
2019-06-01T04:55:07.360Z,20.30
2019-06-01T04:57:39.483Z,20.40
2019-06-01T05:00:24.217Z,20.40
2019-06-01T05:02:42.473Z,20.50
2019-06-01T05:05:13.380Z,20.60
2019-06-01T05:07:44.027Z,20.60
2019-06-01T05:10:16.005Z,20.70
2019-06-01T05:12:46.599Z,20.80
2019-06-01T05:15:18.091Z,20.90
2019-06-01T05:17:48.514Z,21.00
2019-06-01T05:20:18.916Z,21.10
2019-06-01T05:22:49.300Z,21.20
2019-06-01T05:25:19.732Z,21.40
2019-06-01T05:27:50.130Z,21.70
2019-06-01T05:30:22.054Z,22.00
2019-06-01T05:32:52.444Z,22.50
2019-06-01T05:35:22.949Z,23.20
2019-06-01T05:37:53.344Z,24.50
2019-06-01T05:40:23.780Z,26.20
2019-06-01T05:42:54.202Z,27.60
2019-06-01T05:45:24.639Z,28.80
2019-06-01T05:47:55.066Z,29.50
2019-06-01T05:50:25.491Z,30.30
2019-06-01T05:52:55.875Z,31.30
2019-06-01T05:55:26.360Z,32.90
2019-06-01T05:57:58.228Z,34.40
2019-06-01T06:00:40.130Z,36.00
2019-06-01T06:03:14.519Z,37.40
2019-06-01T06:05:42.783Z,38.70
2019-06-01T06:08:14.455Z,39.20
2019-06-01T06:10:46.698Z,40.10
2019-06-01T06:13:17.422Z,40.30
2019-06-01T06:15:47.983Z,41.10
2019-06-01T06:18:18.442Z,40.90
2019-06-01T06:20:48.842Z,41.20
2019-06-01T06:23:20.445Z,42.10
2019-06-01T06:25:51.084Z,42.40
2019-06-01T06:28:21.560Z,43.30
2019-06-01T06:30:51.971Z,42.40
2019-06-01T06:33:23.609Z,42.00
2019-06-01T06:35:54.957Z,42.00
2019-06-01T06:38:25.366Z,42.00
2019-06-01T06:40:55.806Z,42.80
2019-06-01T06:43:32.855Z,43.10
2019-06-01T06:45:58.311Z,43.50
2019-06-01T06:48:28.716Z,43.70
2019-06-01T06:51:03.119Z,43.00
2019-06-01T06:53:35.513Z,43.30
2019-06-01T06:56:05.766Z,44.10
2019-06-01T06:58:36.472Z,44.40
2019-06-01T07:01:06.882Z,45.60
2019-06-01T07:03:37.391Z,46.50
2019-06-01T07:06:09.225Z,47.20
2019-06-01T07:08:39.676Z,47.50
2019-06-01T07:11:12.004Z,47.40
2019-06-01T07:13:42.204Z,48.20
2019-06-01T07:16:12.591Z,48.70
2019-06-01T07:18:43.079Z,48.90
2019-06-01T07:21:13.564Z,48.30
2019-06-01T07:23:44.068Z,47.80
2019-06-01T07:26:15.960Z,48.60
2019-06-01T07:28:46.385Z,48.80
2019-06-01T07:31:16.742Z,49.40
2019-06-01T07:33:47.153Z,48.90
2019-06-01T07:36:17.802Z,48.90
2019-06-01T07:38:48.207Z,49.30
2019-06-01T07:41:20.660Z,49.90
2019-06-01T07:43:51.173Z,48.90
2019-06-01T07:46:22.687Z,48.40
2019-06-01T07:48:53.212Z,48.20
2019-06-01T07:51:23.618Z,48.20
2019-06-01T07:53:54.110Z,47.60
2019-06-01T07:56:24.507Z,48.50
2019-06-01T07:58:54.966Z,49.20
2019-06-01T08:01:27.156Z,50.20
2019-06-01T08:03:57.436Z,51.20
2019-06-01T08:06:28.818Z,52.10
2019-06-01T08:09:00.025Z,52.80
2019-06-01T08:11:35.180Z,53.30
2019-06-01T08:14:07.378Z,54.20
2019-06-01T08:16:37.857Z,54.50
2019-06-01T08:19:08.226Z,54.50
2019-06-01T08:21:38.643Z,55.30
2019-06-01T08:24:09.157Z,55.40
2019-06-01T08:26:41.166Z,55.20
2019-06-01T08:29:11.559Z,54.40
2019-06-01T08:31:41.978Z,52.70
2019-06-01T08:34:12.421Z,52.50
2019-06-01T08:36:44.371Z,47.90
2019-06-01T08:39:14.794Z,47.40
2019-06-01T08:41:45.307Z,48.70
2019-06-01T08:44:15.702Z,50.60
2019-06-01T08:46:46.158Z,51.70
2019-06-01T08:49:16.521Z,53.00
2019-06-01T08:51:47.052Z,52.70
2019-06-01T08:54:18.896Z,54.10
2019-06-01T08:56:49.364Z,55.60
2019-06-01T08:59:21.210Z,56.50
2019-06-01T09:01:51.697Z,56.30
2019-06-01T09:04:22.072Z,54.90
2019-06-01T09:06:54.034Z,54.90
2019-06-01T09:09:24.911Z,54.50
2019-06-01T09:11:55.418Z,54.20
2019-06-01T09:14:27.301Z,53.50
2019-06-01T09:16:57.777Z,53.80
2019-06-01T09:19:29.346Z,53.80
2019-06-01T09:21:59.842Z,52.60
2019-06-01T09:24:30.262Z,52.10
2019-06-01T09:27:00.631Z,51.00
2019-06-01T09:29:32.126Z,49.70
2019-06-01T09:32:02.586Z,49.00
2019-06-01T09:34:34.390Z,47.90
2019-06-01T09:37:05.291Z,48.10
2019-06-01T09:39:36.942Z,48.20
2019-06-01T09:42:07.780Z,48.00
2019-06-01T09:44:38.235Z,48.30
2019-06-01T09:47:08.676Z,48.00
2019-06-01T09:49:39.374Z,45.90
2019-06-01T09:52:12.408Z,44.00
2019-06-01T09:54:41.974Z,42.50
2019-06-01T09:57:12.384Z,40.00
2019-06-01T09:59:42.759Z,38.20
2019-06-01T10:02:13.181Z,36.90
2019-06-01T10:04:45.117Z,35.50
2019-06-01T10:07:17.001Z,34.40
2019-06-01T10:09:47.492Z,33.70
2019-06-01T10:12:19.389Z,32.90
2019-06-01T10:14:49.821Z,32.10
2019-06-01T10:17:20.195Z,31.30
2019-06-01T10:19:50.681Z,30.60
2019-06-01T10:22:21.199Z,30.00
2019-06-01T10:24:51.755Z,29.40
2019-06-01T10:27:22.198Z,29.00
2019-06-01T10:29:52.665Z,28.70
2019-06-01T10:32:23.113Z,28.80
2019-06-01T10:34:54.956Z,29.00
2019-06-01T10:37:25.415Z,29.30
2019-06-01T10:39:57.268Z,29.10
2019-06-01T10:42:27.754Z,29.10
2019-06-01T10:44:58.182Z,29.20
2019-06-01T10:47:30.064Z,29.30
2019-06-01T10:50:00.435Z,29.50
2019-06-01T10:52:31.921Z,29.60
2019-06-01T10:55:02.400Z,29.40
2019-06-01T10:57:34.422Z,29.10
2019-06-01T11:00:07.856Z,29.20
2019-06-01T11:02:38.863Z,29.00
2019-06-01T11:05:10.911Z,28.80
2019-06-01T11:07:41.426Z,28.70
2019-06-01T11:10:12.210Z,28.80
2019-06-01T11:12:43.421Z,28.60
2019-06-01T11:15:14.048Z,28.40
2019-06-01T11:17:45.992Z,28.30
2019-06-01T11:20:16.458Z,28.20
2019-06-01T11:22:46.832Z,28.10
2019-06-01T11:25:17.248Z,28.00
2019-06-01T11:27:47.636Z,27.90
2019-06-01T11:30:18.196Z,27.90
2019-06-01T11:32:48.639Z,28.00
2019-06-01T11:35:22.143Z,28.10
2019-06-01T11:37:52.569Z,28.20
2019-06-01T11:40:23.049Z,28.40
2019-06-01T11:42:53.421Z,28.30
2019-06-01T11:45:23.807Z,28.30
2019-06-01T11:47:54.234Z,28.40
2019-06-01T11:50:24.605Z,28.40
2019-06-01T11:52:55.033Z,28.40
2019-06-01T11:55:25.443Z,28.60
2019-06-01T11:57:55.816Z,28.90
2019-06-01T12:00:26.487Z,28.90
2019-06-01T12:02:56.905Z,28.60
2019-06-01T12:05:27.295Z,28.40
2019-06-01T12:07:57.761Z,28.30
2019-06-01T12:10:28.267Z,28.20
2019-06-01T12:13:00.107Z,28.30
2019-06-01T12:15:30.517Z,28.30
2019-06-01T12:18:02.438Z,28.20
2019-06-01T12:20:32.832Z,28.20
2019-06-01T12:23:03.222Z,28.20
2019-06-01T12:25:36.048Z,28.30
2019-06-01T12:28:06.418Z,28.30
2019-06-01T12:30:39.517Z,28.30
2019-06-01T12:33:09.956Z,28.50
2019-06-01T12:35:40.366Z,28.70
2019-06-01T12:38:10.960Z,28.90
2019-06-01T12:40:43.336Z,29.00
2019-06-01T12:43:13.883Z,29.00
2019-06-01T12:45:44.317Z,29.10
2019-06-01T12:48:16.232Z,29.00
2019-06-01T12:50:49.102Z,29.20
2019-06-01T12:53:18.735Z,29.20
2019-06-01T12:55:49.162Z,29.10
2019-06-01T12:58:19.658Z,28.90
2019-06-01T13:00:50.225Z,28.80
2019-06-01T13:03:20.581Z,28.70
2019-06-01T13:05:51.896Z,28.80
2019-06-01T13:08:22.338Z,28.90
2019-06-01T13:10:52.752Z,29.20
2019-06-01T13:13:23.151Z,29.30
2019-06-01T13:15:53.697Z,29.60
2019-06-01T13:18:24.276Z,29.80
2019-06-01T13:20:54.696Z,29.80
2019-06-01T13:23:25.175Z,29.70
2019-06-01T13:25:57.327Z,29.30
2019-06-01T13:28:37.626Z,29.10
2019-06-01T13:31:01.295Z,29.00
2019-06-01T13:33:31.734Z,28.80
2019-06-01T13:36:02.100Z,28.50
2019-06-01T13:38:34.004Z,28.30
2019-06-01T13:41:04.708Z,28.30
2019-06-01T13:43:35.088Z,28.40
2019-06-01T13:46:06.614Z,28.50
2019-06-01T13:48:37.279Z,28.60
2019-06-01T13:51:07.659Z,28.60
2019-06-01T13:53:38.030Z,28.40
2019-06-01T13:56:08.547Z,28.20
2019-06-01T13:58:38.922Z,28.20
2019-06-01T14:01:09.308Z,28.30
2019-06-01T14:03:39.828Z,28.40
2019-06-01T14:06:10.211Z,28.60
2019-06-01T14:08:40.590Z,28.60
2019-06-01T14:11:12.472Z,28.70
2019-06-01T14:13:42.918Z,28.90
2019-06-01T14:16:13.285Z,29.20
2019-06-01T14:18:43.850Z,29.40
2019-06-01T14:21:14.327Z,29.40
2019-06-01T14:23:45.813Z,29.50
2019-06-01T14:26:16.268Z,29.30
2019-06-01T14:28:47.909Z,29.40
2019-06-01T14:31:19.389Z,29.30
2019-06-01T14:33:52.520Z,29.20
2019-06-01T14:36:23.037Z,29.20
2019-06-01T14:38:56.245Z,29.10
2019-06-01T14:41:25.508Z,28.90
2019-06-01T14:43:56.308Z,28.70
2019-06-01T14:46:27.104Z,28.50
2019-06-01T14:48:59.158Z,28.50
2019-06-01T14:51:29.544Z,28.60
2019-06-01T14:54:00.132Z,28.70
2019-06-01T14:56:30.565Z,28.60
2019-06-01T14:59:02.198Z,28.70
2019-06-01T15:01:33.315Z,28.70
2019-06-01T15:04:05.640Z,28.60
2019-06-01T15:06:36.835Z,28.40
2019-06-01T15:09:18.298Z,28.20
2019-06-01T15:11:40.493Z,28.00
2019-06-01T15:14:10.881Z,27.80
2019-06-01T15:16:42.719Z,27.80
2019-06-01T15:19:13.207Z,27.60
2019-06-01T15:21:43.741Z,27.50
2019-06-01T15:24:14.110Z,27.40
2019-06-01T15:26:44.742Z,27.40
2019-06-01T15:29:16.580Z,27.40
2019-06-01T15:31:47.062Z,27.50
2019-06-01T15:34:17.452Z,27.50
2019-06-01T15:36:49.447Z,27.60
2019-06-01T15:39:24.829Z,27.60
2019-06-01T15:41:53.408Z,27.50
2019-06-01T15:44:23.814Z,27.40
2019-06-01T15:46:55.557Z,27.40
2019-06-01T15:49:26.170Z,27.30
2019-06-01T15:51:57.736Z,27.30
2019-06-01T15:54:28.351Z,27.40
2019-06-01T15:56:58.718Z,27.40
2019-06-01T15:59:30.592Z,27.40
2019-06-01T16:02:01.412Z,27.30
2019-06-01T16:04:34.202Z,27.30
2019-06-01T16:07:04.731Z,27.20
2019-06-01T16:09:42.749Z,27.20
2019-06-01T16:12:07.246Z,27.10
2019-06-01T16:14:37.712Z,27.10
2019-06-01T16:17:08.081Z,27.10
2019-06-01T16:19:38.604Z,27.10
2019-06-01T16:22:08.991Z,27.10
2019-06-01T16:24:39.397Z,27.10
2019-06-01T16:27:09.884Z,27.00
2019-06-01T16:29:40.330Z,27.10
2019-06-01T16:32:10.750Z,27.10
2019-06-01T16:34:41.221Z,27.20
2019-06-01T16:37:12.489Z,27.20
2019-06-01T16:39:58.278Z,27.20
2019-06-01T16:42:16.489Z,27.10
2019-06-01T16:44:47.150Z,27.00
2019-06-01T16:47:17.588Z,27.00
2019-06-01T16:49:48.013Z,26.90
2019-06-01T16:52:18.375Z,26.80
2019-06-01T16:54:48.807Z,26.60
2019-06-01T16:57:20.721Z,26.60
2019-06-01T16:59:51.261Z,26.50
2019-06-01T17:02:21.614Z,26.50
2019-06-01T17:04:53.610Z,26.40
2019-06-01T17:07:24.062Z,26.30
2019-06-01T17:09:54.462Z,26.30
2019-06-01T17:12:24.827Z,26.30
2019-06-01T17:14:55.564Z,26.30
2019-06-01T17:17:27.070Z,26.30
2019-06-01T17:19:57.485Z,26.30
2019-06-01T17:22:27.859Z,26.30
2019-06-01T17:24:59.596Z,26.30
2019-06-01T17:27:30.165Z,26.30
2019-06-01T17:30:05.015Z,26.20
2019-06-01T17:32:32.713Z,26.10
2019-06-01T17:35:03.361Z,26.10
2019-06-01T17:37:35.088Z,26.00
2019-06-01T17:40:08.322Z,26.00
2019-06-01T17:42:38.864Z,25.90
2019-06-01T17:45:09.684Z,25.80
2019-06-01T17:47:42.417Z,25.70
2019-06-01T17:50:12.985Z,25.50
2019-06-01T17:52:43.899Z,25.40
2019-06-01T17:55:32.925Z,25.40
2019-06-01T17:58:03.727Z,25.30
2019-06-01T18:00:34.290Z,25.20
2019-06-01T18:03:06.122Z,25.20
2019-06-01T18:05:36.963Z,25.10
2019-06-01T18:08:08.143Z,25.10
2019-06-01T18:10:52.669Z,25.10
2019-06-01T18:13:13.030Z,25.10
2019-06-01T18:15:43.861Z,25.10
2019-06-01T18:18:14.296Z,25.10
2019-06-01T18:20:44.780Z,25.10
2019-06-01T18:23:15.221Z,25.10
2019-06-01T18:25:45.768Z,25.10
2019-06-01T18:28:19.697Z,25.10
2019-06-01T18:30:50.121Z,25.10
2019-06-01T18:33:22.016Z,25.10
2019-06-01T18:35:52.399Z,25.00
2019-06-01T18:38:24.345Z,25.00
2019-06-01T18:41:08.852Z,24.90
2019-06-01T18:43:27.061Z,24.90
2019-06-01T18:45:59.760Z,24.80
2019-06-01T18:48:30.381Z,24.80
2019-06-01T18:51:00.975Z,24.70
2019-06-01T18:53:31.464Z,24.70
2019-06-01T18:56:01.869Z,24.60
2019-06-01T18:58:32.367Z,24.60
2019-06-01T19:01:04.312Z,24.50
2019-06-01T19:03:34.805Z,24.40
2019-06-01T19:06:05.295Z,24.30
2019-06-01T19:08:35.789Z,24.20
2019-06-01T19:11:06.258Z,24.10
2019-06-01T19:13:36.901Z,24.00
2019-06-01T19:16:08.763Z,23.90
2019-06-01T19:18:39.287Z,23.80
2019-06-01T19:21:12.509Z,23.80
2019-06-01T19:23:43.168Z,23.80
2019-06-01T19:26:16.329Z,23.70
2019-06-01T19:28:45.876Z,23.70
2019-06-01T19:31:17.396Z,23.70
2019-06-01T19:33:48.008Z,23.60
2019-06-01T19:36:18.608Z,23.60
2019-06-01T19:38:50.200Z,23.60
2019-06-01T19:41:20.646Z,23.60
2019-06-01T19:43:52.598Z,23.50
2019-06-01T19:46:23.054Z,23.50
2019-06-01T19:48:56.529Z,23.50
2019-06-01T19:51:27.018Z,23.50
2019-06-01T19:53:57.641Z,23.50
2019-06-01T19:56:28.023Z,23.40
2019-06-01T19:58:59.014Z,23.40
2019-06-01T20:01:29.519Z,23.40
2019-06-01T20:03:59.984Z,23.30
2019-06-01T20:06:30.387Z,23.30
2019-06-01T20:09:00.884Z,23.30
2019-06-01T20:11:31.327Z,23.20
2019-06-01T20:14:01.722Z,23.20
2019-06-01T20:16:32.177Z,23.20
2019-06-01T20:19:02.594Z,23.20
2019-06-01T20:21:34.430Z,23.10
2019-06-01T20:24:05.016Z,23.10
2019-06-01T20:26:42.057Z,23.10
2019-06-01T20:29:07.729Z,23.10
2019-06-01T20:31:38.210Z,23.10
2019-06-01T20:34:08.621Z,23.10
2019-06-01T20:36:39.104Z,23.10
2019-06-01T20:39:09.524Z,23.20
2019-06-01T20:41:39.995Z,23.20
2019-06-01T20:44:10.525Z,23.20
2019-06-01T20:46:41.030Z,23.20
2019-06-01T20:49:12.708Z,23.30
2019-06-01T20:51:43.185Z,23.30
2019-06-01T20:54:14.960Z,23.30
2019-06-01T20:56:47.031Z,23.40
2019-06-01T20:59:20.269Z,23.40
2019-06-01T21:01:50.015Z,23.40
2019-06-01T21:04:20.488Z,23.40
2019-06-01T21:06:51.015Z,23.50
2019-06-01T21:09:24.295Z,23.50
2019-06-01T21:11:56.310Z,23.50
2019-06-01T21:14:28.224Z,23.50
2019-06-01T21:16:58.661Z,23.60
2019-06-01T21:19:29.235Z,23.60
2019-06-01T21:21:59.677Z,23.60
2019-06-01T21:24:30.136Z,23.70
2019-06-01T21:27:02.000Z,23.70
2019-06-01T21:29:32.406Z,23.70
2019-06-01T21:32:02.760Z,23.70
2019-06-01T21:34:33.161Z,23.70
2019-06-01T21:37:03.569Z,23.70
2019-06-01T21:39:34.077Z,23.70
2019-06-01T21:42:04.578Z,23.70
2019-06-01T21:44:35.049Z,23.70
2019-06-01T21:47:05.534Z,23.70
2019-06-01T21:49:35.952Z,23.70
2019-06-01T21:52:06.440Z,23.60
2019-06-01T21:54:36.912Z,23.70
2019-06-01T21:57:07.382Z,23.70
2019-06-01T21:59:37.862Z,23.60
2019-06-01T22:02:09.288Z,23.70
2019-06-01T22:04:39.777Z,23.70
2019-06-01T22:07:10.171Z,23.60
2019-06-01T22:09:40.593Z,23.60
2019-06-01T22:12:11.048Z,23.60
2019-06-01T22:14:41.559Z,23.60
2019-06-01T22:17:11.952Z,23.60
2019-06-01T22:19:42.477Z,23.60
2019-06-01T22:22:12.861Z,23.50
2019-06-01T22:24:43.444Z,23.50
2019-06-01T22:27:15.474Z,23.40
2019-06-01T22:29:47.329Z,23.40
2019-06-01T22:32:18.370Z,23.40
2019-06-01T22:34:49.803Z,23.40
2019-06-01T22:37:21.406Z,23.30
2019-06-01T22:39:52.140Z,23.20
2019-06-01T22:42:22.511Z,23.10
2019-06-01T22:44:54.410Z,23.10
2019-06-01T22:47:24.884Z,23.00
2019-06-01T22:49:56.805Z,23.00
2019-06-01T22:52:27.217Z,22.90
2019-06-01T22:54:59.315Z,22.90
2019-06-01T22:57:29.683Z,22.80
2019-06-01T23:00:00.276Z,22.80
2019-06-01T23:02:32.225Z,22.80
2019-06-01T23:05:02.662Z,22.70
2019-06-01T23:07:33.111Z,22.70
2019-06-01T23:10:05.510Z,22.70
2019-06-01T23:12:37.537Z,22.60
2019-06-01T23:15:07.938Z,22.60
2019-06-01T23:17:39.820Z,22.60
2019-06-01T23:20:10.374Z,22.60
2019-06-01T23:22:42.196Z,22.50
2019-06-01T23:25:12.610Z,22.50
2019-06-01T23:27:44.467Z,22.50
2019-06-01T23:30:14.961Z,22.50
2019-06-01T23:32:46.941Z,22.50
2019-06-01T23:35:17.409Z,22.40
2019-06-01T23:37:49.344Z,22.40
2019-06-01T23:40:19.781Z,22.40
2019-06-01T23:42:50.145Z,22.40
2019-06-01T23:45:20.576Z,22.30
2019-06-01T23:47:51.084Z,22.30
2019-06-01T23:50:23.167Z,22.30
2019-06-01T23:52:53.627Z,22.30
2019-06-01T23:55:24.001Z,22.20
2019-06-01T23:57:55.289Z,22.20
